Time;durP1;ratioP1;P1;durP2;ratioP2;P2;SDS_P1;SDS_P2;PMS_P1;PMS_P2;Temp;Humidity;BMP_temperature;BMP_pressure;BME280_temperature;BME280_humidity;BME280_pressure;Samples;Min_cycle;Max_cycle;Signal;HPM_P1;HPM_P2
2021/08/03 00:00:57;;;;;;;0.32;0.32;;;14.30;85.60;;;;;;5054388;28;20048;-76
2021/08/03 00:03:29;;;;;;;0.15;0.15;;;14.30;85.50;;;;;;5054520;28;20032;-76
2021/08/03 00:05:56;;;;;;;0.43;0.40;;;14.20;85.60;;;;;;5054672;28;20041;-76
2021/08/03 00:08:24;;;;;;;0.30;0.20;;;14.20;85.60;;;;;;5036592;28;20478;-76
2021/08/03 00:10:51;;;;;;;0.10;0.10;;;14.20;85.70;;;;;;5054332;28;20104;-76
2021/08/03 00:13:17;;;;;;;0.77;0.77;;;14.20;85.60;;;;;;5053924;28;20390;-76
2021/08/03 00:15:43;;;;;;;0.10;0.10;;;14.20;85.60;;;;;;5036443;28;20025;-76
2021/08/03 00:18:09;;;;;;;0.17;0.17;;;14.20;85.60;;;;;;5054031;28;20075;-76
2021/08/03 00:20:36;;;;;;;0.10;0.10;;;14.20;85.50;;;;;;5054333;28;20420;-76
2021/08/03 00:23:02;;;;;;;0.17;0.15;;;14.20;86.20;;;;;;5054127;28;20037;-76
2021/08/03 00:25:29;;;;;;;0.17;0.10;;;14.30;85.50;;;;;;5053163;28;20032;-76
2021/08/03 00:27:55;;;;;;;0.28;0.25;;;14.30;85.50;;;;;;5053848;28;20095;-76
2021/08/03 00:30:25;;;;;;;0.25;0.25;;;14.30;85.50;;;;;;5053938;28;20533;-76
2021/08/03 00:32:52;;;;;;;0.10;0.10;;;14.30;85.50;;;;;;5035935;28;20017;-76
2021/08/03 00:35:18;;;;;;;0.28;0.28;;;14.30;85.70;;;;;;5036078;28;20025;-76
2021/08/03 00:37:43;;;;;;;0.10;0.10;;;14.20;85.70;;;;;;5053882;28;20040;-76
2021/08/03 00:40:12;;;;;;;0.22;0.22;;;14.20;85.80;;;;;;5053839;28;20127;-76
2021/08/03 00:42:38;;;;;;;0.10;0.10;;;14.20;85.90;;;;;;5053349;28;20040;-76
2021/08/03 00:45:04;;;;;;;0.10;0.10;;;14.20;86.00;;;;;;5053635;28;20028;-76
2021/08/03 00:47:29;;;;;;;0.75;0.10;;;14.10;86.00;;;;;;5053662;28;20052;-76
2021/08/03 00:49:55;;;;;;;0.20;0.20;;;14.10;86.00;;;;;;5053624;28;20021;-76
2021/08/03 00:52:20;;;;;;;0.10;0.10;;;14.10;86.10;;;;;;5053548;28;20021;-76
2021/08/03 00:54:46;;;;;;;0.10;0.10;;;14.10;86.10;;;;;;5053378;28;20044;-76
2021/08/03 00:57:12;;;;;;;0.10;0.10;;;14.10;86.00;;;;;;5053161;28;20024;-76
2021/08/03 00:59:38;;;;;;;0.22;0.10;;;14.10;86.00;;;;;;5053462;28;20021;-75
2021/08/03 01:02:06;;;;;;;0.10;0.10;;;14.10;86.10;;;;;;5053280;28;20059;-76
2021/08/03 01:04:32;;;;;;;0.10;0.10;;;14.10;86.10;;;;;;5053687;28;20029;-76
2021/08/03 01:07:30;;;;;;;0.10;0.10;;;14.10;86.00;;;;;;5053424;28;20374;-76
2021/08/03 01:10:04;;;;;;;0.10;0.10;;;14.10;85.90;;;;;;5053521;28;20027;-76
2021/08/03 01:12:51;;;;;;;0.08;0.08;;;14.10;86.10;;;;;;5052822;28;20032;-76
2021/08/03 01:15:21;;;;;;;0.20;0.20;;;14.10;86.10;;;;;;5053265;28;20116;-75
2021/08/03 01:18:22;;;;;;;0.30;0.30;;;14.00;86.10;;;;;;5053439;28;20036;-76
2021/08/03 01:21:32;;;;;;;0.20;0.20;;;14.10;86.10;;;;;;5053095;28;20048;-76
2021/08/03 01:24:28;;;;;;;0.20;0.10;;;14.00;86.10;;;;;;5053119;28;20493;-76
2021/08/03 01:27:14;;;;;;;0.30;0.30;;;14.00;86.30;;;;;;5052834;28;20115;-76
2021/08/03 01:29:43;;;;;;;0.20;0.17;;;14.00;86.40;;;;;;5053238;28;20036;-76
2021/08/03 01:32:10;;;;;;;0.10;0.10;;;14.00;86.40;;;;;;5053138;28;20032;-75
2021/08/03 01:34:41;;;;;;;0.00;0.00;;;14.00;86.50;;;;;;5053071;28;20033;-76
2021/08/03 01:37:07;;;;;;;0.10;0.10;;;14.00;86.50;;;;;;5058619;28;20029;-75
2021/08/03 01:39:40;;;;;;;0.08;0.08;;;14.00;86.50;;;;;;5059788;28;20098;-75
2021/08/03 01:42:08;;;;;;;0.35;0.22;;;14.00;86.50;;;;;;5059055;28;20493;-75
2021/08/03 01:44:35;;;;;;;0.10;0.10;;;14.00;86.50;;;;;;5059651;28;20044;-75
2021/08/03 01:47:03;;;;;;;0.10;0.10;;;13.90;86.50;;;;;;5059660;28;20029;-75
2021/08/03 01:49:31;;;;;;;0.38;0.30;;;13.90;86.60;;;;;;5059506;28;20144;-75
2021/08/03 01:51:57;;;;;;;0.13;0.13;;;13.90;86.70;;;;;;5041697;28;20028;-76
2021/08/03 01:54:24;;;;;;;0.22;0.22;;;13.90;86.80;;;;;;5059041;28;20123;-76
2021/08/03 01:56:50;;;;;;;0.10;0.10;;;13.90;86.80;;;;;;5059578;28;20025;-76
2021/08/03 01:59:17;;;;;;;0.10;0.10;;;13.90;86.90;;;;;;5059573;28;20067;-76
2021/08/03 02:01:45;;;;;;;0.20;0.20;;;13.80;86.80;;;;;;5059306;28;20504;-76
2021/08/03 02:04:11;;;;;;;0.10;0.10;;;13.80;86.80;;;;;;5059467;28;20021;-75
2021/08/03 02:06:37;;;;;;;0.10;0.10;;;13.70;86.90;;;;;;5059400;28;20040;-75
2021/08/03 02:09:04;;;;;;;0.20;0.20;;;13.70;87.00;;;;;;5058943;28;20016;-75
2021/08/03 02:11:33;;;;;;;0.15;0.15;;;13.60;87.10;;;;;;5059324;28;20021;-75
2021/08/03 02:13:59;;;;;;;0.20;0.20;;;13.60;87.20;;;;;;5059362;28;20025;-75
2021/08/03 02:16:24;;;;;;;0.10;0.10;;;13.60;87.30;;;;;;5059415;28;20064;-75
2021/08/03 02:18:51;;;;;;;0.40;0.20;;;13.50;87.20;;;;;;5059384;28;20044;-76
2021/08/03 02:21:18;;;;;;;0.20;0.20;;;13.50;87.30;;;;;;5059188;28;20036;-75
2021/08/03 02:23:44;;;;;;;0.13;0.13;;;13.50;87.30;;;;;;5058830;28;20080;-75
2021/08/03 02:26:12;;;;;;;0.60;0.60;;;13.50;87.30;;;;;;5059349;28;20021;-75
2021/08/03 02:28:38;;;;;;;0.00;0.00;;;13.50;87.30;;;;;;5059479;28;20024;-75
2021/08/03 02:31:20;;;;;;;0.10;0.10;;;13.50;87.30;;;;;;5059227;28;20020;-75
2021/08/03 02:33:52;;;;;;;0.10;0.10;;;13.60;87.30;;;;;;5059201;28;20032;-75
2021/08/03 02:36:20;;;;;;;0.10;0.10;;;13.50;87.20;;;;;;5059191;28;20013;-75
2021/08/03 02:38:53;;;;;;;0.00;0.00;;;13.50;87.20;;;;;;5058760;28;20032;-75
2021/08/03 02:41:19;;;;;;;0.17;0.17;;;13.50;87.20;;;;;;5059285;28;20075;-74
2021/08/03 02:43:46;;;;;;;0.20;0.20;;;13.50;87.20;;;;;;5058900;28;20055;-75
2021/08/03 02:46:15;;;;;;;0.20;0.15;;;13.50;87.20;;;;;;5058979;28;20538;-75
2021/08/03 02:48:41;;;;;;;0.20;0.17;;;13.50;87.20;;;;;;5055321;28;20021;-76
2021/08/03 02:51:07;;;;;;;0.10;0.10;;;13.50;87.30;;;;;;5055921;28;20021;-75
2021/08/03 02:53:47;;;;;;;0.30;0.30;;;13.50;87.30;;;;;;5055335;28;20031;-76
2021/08/03 02:56:15;;;;;;;0.30;0.30;;;13.50;87.30;;;;;;5055669;28;20045;-75
2021/08/03 02:58:49;;;;;;;0.30;0.30;;;13.50;87.30;;;;;;5055864;28;20070;-75
2021/08/03 03:01:16;;;;;;;0.20;0.20;;;13.40;87.20;;;;;;5055910;28;20021;-75
2021/08/03 03:03:49;;;;;;;0.60;0.30;;;13.50;87.30;;;;;;5055872;28;20063;-75
2021/08/03 03:06:18;;;;;;;0.20;0.20;;;13.50;87.30;;;;;;5055507;28;20096;-75
2021/08/03 03:08:46;;;;;;;0.20;0.20;;;13.40;87.30;;;;;;5055134;28;20079;-75
2021/08/03 03:11:13;;;;;;;0.20;0.20;;;13.40;87.40;;;;;;5055466;28;20028;-75
2021/08/03 03:13:49;;;;;;;0.30;0.22;;;13.40;87.40;;;;;;5055505;28;20136;-75
2021/08/03 03:16:17;;;;;;;0.10;0.10;;;13.50;87.30;;;;;;5055342;28;20615;-75
2021/08/03 03:18:44;;;;;;;0.30;0.25;;;13.50;87.40;;;;;;5055370;28;20108;-75
2021/08/03 03:21:14;;;;;;;0.28;0.20;;;13.50;87.30;;;;;;5055362;28;20040;-76
2021/08/03 03:23:41;;;;;;;0.20;0.20;;;13.50;87.30;;;;;;5054852;28;20366;-75
2021/08/03 03:26:07;;;;;;;0.10;0.10;;;13.50;87.30;;;;;;5055280;28;20017;-75
2021/08/03 03:28:35;;;;;;;0.17;0.17;;;13.50;87.30;;;;;;5055212;28;20090;-75
2021/08/03 03:31:03;;;;;;;0.22;0.20;;;13.50;87.30;;;;;;5055105;28;20120;-75
2021/08/03 03:33:30;;;;;;;0.13;0.13;;;13.50;87.30;;;;;;5055020;28;20017;-75
2021/08/03 03:35:59;;;;;;;0.40;0.30;;;13.50;87.30;;;;;;5054670;28;20021;-75
2021/08/03 03:38:28;;;;;;;0.25;0.25;;;13.50;87.90;;;;;;5055033;28;20025;-75
2021/08/03 03:40:55;;;;;;;0.10;0.10;;;13.60;87.40;;;;;;5037255;28;20067;-75
2021/08/03 03:43:22;;;;;;;0.40;0.32;;;13.50;87.30;;;;;;5054881;28;20032;-75
2021/08/03 03:46:15;;;;;;;0.47;0.47;;;13.50;87.40;;;;;;5054748;28;20461;-75
2021/08/03 03:48:55;;;;;;;0.20;0.20;;;13.60;87.40;;;;;;5044099;28;20486;-75
2021/08/03 03:51:27;;;;;;;;;;;13.60;87.50;;;;;;5054905;28;20024;-75
2021/08/03 03:53:56;;;;;;;0.40;0.20;;;13.50;87.40;;;;;;5054417;28;19974;-74
2021/08/03 03:56:27;;;;;;;0.10;0.10;;;13.50;87.60;;;;;;5054839;28;20094;-75
2021/08/03 03:58:59;;;;;;;0.13;0.10;;;13.50;87.60;;;;;;5054543;28;20534;-75
2021/08/03 04:01:26;;;;;;;1.40;0.20;;;13.50;87.60;;;;;;5054502;28;20108;-75
2021/08/03 04:03:53;;;;;;;0.47;0.20;;;13.50;87.70;;;;;;5054572;28;20025;-75
2021/08/03 04:06:19;;;;;;;0.15;0.15;;;13.50;87.70;;;;;;5053913;28;20017;-75
2021/08/03 04:08:45;;;;;;;0.28;0.28;;;13.50;87.70;;;;;;5054444;28;20040;-75
2021/08/03 04:11:13;;;;;;;0.28;0.15;;;13.50;87.70;;;;;;5054376;28;20047;-75
2021/08/03 04:13:43;;;;;;;0.15;0.15;;;13.50;87.80;;;;;;5054333;28;20021;-75
2021/08/03 04:16:08;;;;;;;;;;;13.50;87.90;;;;;;5036895;28;20024;-75
2021/08/03 04:18:34;;;;;;;0.30;0.30;;;13.40;87.70;;;;;;5054285;28;19904;-75
2021/08/03 04:21:00;;;;;;;0.22;0.22;;;13.40;88.00;;;;;;5053769;28;20080;-75
2021/08/03 04:23:25;;;;;;;0.13;0.13;;;13.30;88.00;;;;;;5054043;28;20024;-75
2021/08/03 04:25:51;;;;;;;0.55;0.47;;;13.30;88.10;;;;;;5054336;28;20474;-75
2021/08/03 04:28:16;;;;;;;0.43;0.40;;;13.30;88.20;;;;;;5054101;28;20055;-75
2021/08/03 04:30:42;;;;;;;1.08;0.30;;;13.20;88.20;;;;;;5053883;28;20112;-74
2021/08/03 04:33:07;;;;;;;0.20;0.20;;;13.20;88.40;;;;;;5036095;28;20420;-75
2021/08/03 04:35:33;;;;;;;0.60;0.38;;;13.10;88.50;;;;;;5053482;28;20029;-75
2021/08/03 04:37:58;;;;;;;0.20;0.20;;;13.10;88.50;;;;;;5053916;28;20100;-75
2021/08/03 04:40:24;;;;;;;0.32;0.32;;;13.00;88.40;;;;;;5053814;28;20033;-75
2021/08/03 04:42:50;;;;;;;0.47;0.47;;;13.00;88.40;;;;;;5053596;28;20389;-75
2021/08/03 04:45:16;;;;;;;0.32;0.32;;;13.00;88.40;;;;;;5053658;28;20070;-74
2021/08/03 04:47:47;;;;;;;0.30;0.30;;;13.00;88.40;;;;;;5053729;28;20024;-74
2021/08/03 04:50:22;;;;;;;0.50;0.50;;;12.90;88.40;;;;;;5053121;28;20032;-74
2021/08/03 04:52:47;;;;;;;0.60;0.40;;;12.90;88.60;;;;;;5053574;28;20024;-74
2021/08/03 04:55:13;;;;;;;0.63;0.50;;;12.90;88.50;;;;;;5053268;28;20056;-75
2021/08/03 04:57:39;;;;;;;0.30;0.30;;;12.90;88.50;;;;;;5053686;28;20486;-75
2021/08/03 05:00:07;;;;;;;0.40;0.40;;;12.90;88.50;;;;;;5053603;28;20036;-74
2021/08/03 05:02:33;;;;;;;0.30;0.30;;;12.90;88.40;;;;;;5035438;28;20037;-75
2021/08/03 05:04:58;;;;;;;0.45;0.45;;;13.00;88.40;;;;;;5052876;28;20100;-74
2021/08/03 05:07:24;;;;;;;0.30;0.28;;;13.10;88.30;;;;;;5053657;28;20481;-75
2021/08/03 05:09:49;;;;;;;0.40;0.40;;;13.20;88.20;;;;;;5035228;28;20021;-75
2021/08/03 05:12:15;;;;;;;0.40;0.40;;;13.30;88.00;;;;;;5035191;28;20029;-74
2021/08/03 05:14:40;;;;;;;0.30;0.30;;;13.50;87.80;;;;;;5053111;28;20032;-75
2021/08/03 05:17:06;;;;;;;0.32;0.32;;;13.60;87.60;;;;;;5053378;28;20021;-74
2021/08/03 05:19:32;;;;;;;0.20;0.20;;;13.70;87.40;;;;;;5035018;28;20469;-75
2021/08/03 05:21:57;;;;;;;0.85;0.38;;;13.80;87.20;;;;;;5053094;28;20029;-75
2021/08/03 05:24:26;;;;;;;0.35;0.35;;;14.00;87.10;;;;;;5052969;28;20067;-75
2021/08/03 05:26:53;;;;;;;0.40;0.35;;;14.10;86.90;;;;;;5053146;28;20029;-75
2021/08/03 05:29:18;;;;;;;0.47;0.30;;;14.20;86.90;;;;;;5053024;28;20017;-75
2021/08/03 05:31:44;;;;;;;0.35;0.35;;;14.30;86.80;;;;;;5053014;28;20377;-75
2021/08/03 05:34:09;;;;;;;0.28;0.28;;;14.40;86.70;;;;;;5052763;28;20104;-75
2021/08/03 05:36:35;;;;;;;0.32;0.30;;;14.60;86.60;;;;;;5053131;28;20060;-75
2021/08/03 05:39:00;;;;;;;0.30;0.30;;;14.70;86.60;;;;;;5052967;28;20492;-75
2021/08/03 05:41:26;;;;;;;0.30;0.30;;;14.80;86.40;;;;;;5052904;28;20029;-75
2021/08/03 05:43:52;;;;;;;0.20;0.20;;;14.90;86.30;;;;;;5052920;28;20039;-75
2021/08/03 05:46:17;;;;;;;0.28;0.28;;;15.00;86.10;;;;;;5052993;28;20045;-75
2021/08/03 05:48:43;;;;;;;0.40;0.30;;;15.10;86.00;;;;;;5052452;28;20502;-75
2021/08/03 05:51:08;;;;;;;0.35;0.35;;;15.20;86.00;;;;;;5052838;28;20025;-76
2021/08/03 05:53:34;;;;;;;0.20;0.20;;;15.30;86.00;;;;;;5052842;28;20025;-75
2021/08/03 05:56:00;;;;;;;0.25;0.25;;;15.30;86.00;;;;;;5035047;28;20053;-75
2021/08/03 05:58:26;;;;;;;0.30;0.30;;;15.40;86.10;;;;;;5052858;28;20117;-75
2021/08/03 06:00:51;;;;;;;0.50;0.40;;;15.40;86.00;;;;;;5052511;28;20017;-75
2021/08/03 06:03:17;;;;;;;0.32;0.28;;;15.40;86.00;;;;;;5052696;28;20033;-75
2021/08/03 06:05:43;;;;;;;0.20;0.20;;;15.40;86.00;;;;;;5052856;28;20031;-75
2021/08/03 06:08:11;;;;;;;0.32;0.32;;;15.40;86.10;;;;;;5052707;28;20021;-75
2021/08/03 06:10:37;;;;;;;0.52;0.30;;;15.50;86.30;;;;;;5052745;28;20025;-75
2021/08/03 06:13:05;;;;;;;0.30;0.30;;;15.50;86.30;;;;;;5052708;28;20033;-75
2021/08/03 06:15:37;;;;;;;0.35;0.35;;;15.50;86.30;;;;;;5052257;28;20028;-75
2021/08/03 06:18:07;;;;;;;0.20;0.20;;;15.50;86.40;;;;;;5052654;28;20025;-75
2021/08/03 06:20:34;;;;;;;0.20;0.20;;;15.50;86.30;;;;;;5052640;28;20033;-75
2021/08/03 06:23:00;;;;;;;0.52;0.40;;;15.60;86.30;;;;;;5053634;28;20037;-75
2021/08/03 06:25:26;;;;;;;0.20;0.20;;;15.60;86.30;;;;;;5056314;28;20028;-76
2021/08/03 06:27:53;;;;;;;0.30;0.30;;;15.70;86.30;;;;;;5056487;28;20017;-76
2021/08/03 06:30:19;;;;;;;0.10;0.10;;;15.70;86.40;;;;;;5055843;28;20025;-75
2021/08/03 06:32:45;;;;;;;0.22;0.22;;;15.70;86.40;;;;;;5038543;28;20105;-76
2021/08/03 06:35:11;;;;;;;0.10;0.10;;;15.80;86.40;;;;;;5056072;28;20029;-76
2021/08/03 06:37:37;;;;;;;0.30;0.30;;;15.80;86.30;;;;;;5038406;28;20110;-76
2021/08/03 06:40:04;;;;;;;0.22;0.20;;;15.90;86.20;;;;;;5056140;28;20466;-76
2021/08/03 06:42:35;;;;;;;0.25;0.25;;;15.90;86.20;;;;;;5038060;28;20029;-76
2021/08/03 06:45:06;;;;;;;0.25;0.25;;;16.00;86.20;;;;;;5055844;28;20446;-76
2021/08/03 06:47:42;;;;;;;0.30;0.30;;;15.90;86.20;;;;;;5056044;28;20029;-76
2021/08/03 06:50:10;;;;;;;0.57;0.40;;;16.00;86.10;;;;;;5055939;28;20029;-76
2021/08/03 06:52:37;;;;;;;0.22;0.22;;;16.00;86.20;;;;;;5055816;28;20024;-76
2021/08/03 06:55:06;;;;;;;0.30;0.20;;;16.00;86.20;;;;;;5055651;28;20060;-76
2021/08/03 06:57:33;;;;;;;0.20;0.20;;;16.10;86.20;;;;;;5055745;28;20028;-76
2021/08/03 07:00:05;;;;;;;0.30;0.30;;;16.10;86.10;;;;;;5055389;28;20025;-76
2021/08/03 07:02:34;;;;;;;0.20;0.20;;;16.20;86.10;;;;;;5055662;28;20461;-76
2021/08/03 07:05:09;;;;;;;0.38;0.17;;;16.20;86.00;;;;;;5055675;28;20029;-76
2021/08/03 07:07:35;;;;;;;0.20;0.20;;;16.30;86.00;;;;;;5037629;28;20477;-76
2021/08/03 07:10:03;;;;;;;1.10;0.30;;;16.20;86.10;;;;;;5055776;28;20147;-76
2021/08/03 07:12:30;;;;;;;0.28;0.28;;;16.30;86.10;;;;;;5055304;28;20017;-76
2021/08/03 07:14:57;;;;;;;0.45;0.32;;;16.20;86.00;;;;;;5055004;28;20393;-76
2021/08/03 07:17:26;;;;;;;0.30;0.30;;;16.30;86.10;;;;;;5055453;28;20028;-76
2021/08/03 07:19:52;;;;;;;0.30;0.30;;;16.40;86.10;;;;;;5055466;28;20029;-76
2021/08/03 07:22:18;;;;;;;0.50;0.40;;;16.40;86.00;;;;;;5055275;28;20044;-76
2021/08/03 07:24:46;;;;;;;0.20;0.20;;;16.40;86.00;;;;;;5055150;28;20474;-76
2021/08/03 07:27:13;;;;;;;0.20;0.20;;;16.50;86.00;;;;;;5055352;28;20029;-76
2021/08/03 07:29:39;;;;;;;0.32;0.32;;;16.50;86.00;;;;;;5054786;28;20036;-76
2021/08/03 07:32:07;;;;;;;0.43;0.43;;;16.50;86.00;;;;;;5055169;28;20037;-76
2021/08/03 07:34:33;;;;;;;0.47;0.47;;;16.50;86.00;;;;;;5054520;28;20070;-76
2021/08/03 07:37:01;;;;;;;0.50;0.50;;;16.60;86.00;;;;;;5055049;28;20029;-76
2021/08/03 07:39:26;;;;;;;0.65;0.60;;;16.60;85.90;;;;;;5055031;28;20025;-76
2021/08/03 07:41:55;;;;;;;0.32;0.32;;;16.70;85.80;;;;;;5054836;28;20083;-77
2021/08/03 07:44:21;;;;;;;0.57;0.57;;;16.70;85.80;;;;;;5054549;28;20428;-76
2021/08/03 07:46:47;;;;;;;0.55;0.32;;;16.80;85.80;;;;;;5054748;28;20458;-76
2021/08/03 07:49:12;;;;;;;0.45;0.45;;;16.80;85.70;;;;;;5054883;28;20526;-76
2021/08/03 07:51:38;;;;;;;0.50;0.50;;;16.90;85.50;;;;;;5054805;28;20377;-76
2021/08/03 07:54:03;;;;;;;0.77;0.60;;;17.00;85.50;;;;;;5054627;28;20473;-76
2021/08/03 07:56:29;;;;;;;0.50;0.50;;;17.10;85.50;;;;;;5054746;28;20378;-76
2021/08/03 07:58:54;;;;;;;0.73;0.70;;;17.20;85.40;;;;;;5054230;28;20139;-76
2021/08/03 08:01:20;;;;;;;0.65;0.65;;;17.30;85.30;;;;;;5054630;28;20427;-76
2021/08/03 08:03:46;;;;;;;0.47;0.43;;;17.40;85.20;;;;;;5054518;28;20503;-76
2021/08/03 08:06:12;;;;;;;0.40;0.40;;;17.50;85.10;;;;;;5054519;28;20104;-76
2021/08/03 08:08:38;;;;;;;0.60;0.60;;;17.60;85.00;;;;;;5054467;28;20083;-76
2021/08/03 08:11:04;;;;;;;0.45;0.45;;;17.60;85.00;;;;;;5054324;28;20112;-77
2021/08/03 08:13:30;;;;;;;0.68;0.65;;;17.70;85.10;;;;;;5053927;28;20462;-76
2021/08/03 08:15:55;;;;;;;1.05;0.80;;;17.70;85.00;;;;;;5054240;28;20029;-76
2021/08/03 08:18:21;;;;;;;0.60;0.55;;;17.70;85.00;;;;;;5054422;28;20026;-76
2021/08/03 08:20:46;;;;;;;0.82;0.80;;;17.80;85.00;;;;;;5054200;28;20021;-76
2021/08/03 08:23:14;;;;;;;0.77;0.77;;;17.90;85.00;;;;;;5054165;28;20032;-76
2021/08/03 08:25:40;;;;;;;1.10;0.90;;;17.90;84.90;;;;;;5053978;28;20359;-76
2021/08/03 08:28:06;;;;;;;0.80;0.80;;;17.90;84.80;;;;;;5053527;28;20032;-76
2021/08/03 08:30:32;;;;;;;0.75;0.73;;;17.90;85.10;;;;;;5036121;28;20025;-76
2021/08/03 08:32:58;;;;;;;1.08;0.98;;;18.00;85.10;;;;;;5053845;28;20045;-77
2021/08/03 08:35:24;;;;;;;0.82;0.80;;;18.00;85.00;;;;;;5036219;28;20080;-77
2021/08/03 08:37:49;;;;;;;1.25;1.13;;;18.10;85.10;;;;;;5036128;28;20013;-76
2021/08/03 08:40:16;;;;;;;1.50;1.17;;;18.10;84.90;;;;;;5053851;28;20033;-77
2021/08/03 08:42:44;;;;;;;1.13;0.95;;;18.20;84.70;;;;;;5053299;28;20029;-76
2021/08/03 08:45:09;;;;;;;1.48;1.00;;;18.30;84.70;;;;;;5053033;28;20025;-77
2021/08/03 08:47:36;;;;;;;1.30;1.08;;;18.40;84.70;;;;;;5053701;28;20032;-76
2021/08/03 08:50:05;;;;;;;1.13;1.00;;;18.50;84.50;;;;;;5053715;28;20021;-76
2021/08/03 08:52:35;;;;;;;;;;;18.70;84.40;;;;;;5053984;28;20025;-77
2021/08/03 08:55:01;;;;;;;1.30;1.08;;;18.70;84.50;;;;;;5053103;28;19917;-76
2021/08/03 08:57:26;;;;;;;0.95;0.95;;;18.70;84.50;;;;;;5053419;28;20071;-76
2021/08/03 08:59:52;;;;;;;1.85;1.38;;;18.70;84.40;;;;;;5053485;28;20025;-77
2021/08/03 09:02:40;;;;;;;1.33;1.00;;;18.70;84.30;;;;;;5053447;28;20036;-76
2021/08/03 09:05:30;;;;;;;0.93;0.85;;;18.70;84.40;;;;;;5053644;28;20020;-76
2021/08/03 09:07:58;;;;;;;1.33;1.10;;;18.70;84.60;;;;;;5027454;28;20047;-76
2021/08/03 09:10:41;;;;;;;2.97;1.48;;;18.70;84.60;;;;;;5034939;28;20075;-76
2021/08/03 09:13:18;;;;;;;0.80;0.80;;;18.60;84.70;;;;;;5053490;28;20047;-76
2021/08/03 09:15:46;;;;;;;2.13;1.13;;;18.60;84.90;;;;;;5053306;28;20029;-76
2021/08/03 09:18:14;;;;;;;1.38;1.20;;;18.60;84.90;;;;;;5053186;28;20036;-76
2021/08/03 09:20:41;;;;;;;1.17;1.00;;;18.70;84.90;;;;;;5035313;28;20009;-76
2021/08/03 09:23:07;;;;;;;1.33;1.23;;;18.80;84.70;;;;;;5053116;28;20091;-76
2021/08/03 09:25:32;;;;;;;2.33;1.73;;;19.00;84.30;;;;;;5052846;28;20024;-76
2021/08/03 09:28:04;;;;;;;1.17;1.08;;;19.20;84.10;;;;;;5053135;28;20029;-76
2021/08/03 09:30:32;;;;;;;1.25;1.10;;;19.30;83.70;;;;;;5053015;28;20028;-76
2021/08/03 09:32:58;;;;;;;2.08;1.20;;;19.30;83.70;;;;;;5053077;28;20029;-76
2021/08/03 09:35:26;;;;;;;1.30;1.20;;;19.50;83.80;;;;;;5035163;28;20025;-76
2021/08/03 09:37:53;;;;;;;1.52;1.33;;;19.70;83.50;;;;;;5052954;28;20071;-76
2021/08/03 09:40:19;;;;;;;2.30;1.65;;;19.80;83.00;;;;;;5052464;28;20025;-76
2021/08/03 09:42:55;;;;;;;2.35;1.75;;;19.90;82.70;;;;;;5034860;28;20044;-76
2021/08/03 09:45:21;;;;;;;2.03;1.27;;;20.10;82.60;;;;;;5035176;28;20033;-76
2021/08/03 09:47:46;;;;;;;1.73;1.63;;;20.20;82.50;;;;;;5052986;28;20021;-76
2021/08/03 09:50:12;;;;;;;1.50;1.30;;;20.40;82.30;;;;;;5052739;28;20040;-76
2021/08/03 09:52:42;;;;;;;2.15;1.55;;;20.50;82.10;;;;;;5052938;28;20033;-77
2021/08/03 09:55:10;;;;;;;;;;;20.40;82.10;;;;;;5052713;28;20041;-76
2021/08/03 09:57:36;;;;;;;1.35;1.25;;;20.30;82.80;;;;;;5055038;28;19905;-77
2021/08/03 10:00:02;;;;;;;1.65;1.55;;;20.30;82.70;;;;;;5056859;28;20033;-78
2021/08/03 10:02:28;;;;;;;2.20;2.00;;;20.30;82.80;;;;;;5038987;28;20044;-77
2021/08/03 10:04:56;;;;;;;2.08;1.52;;;20.30;82.80;;;;;;5038768;28;20013;-77
2021/08/03 10:07:22;;;;;;;2.00;1.48;;;20.40;82.70;;;;;;5056349;28;20025;-76
2021/08/03 10:09:49;;;;;;;1.35;1.17;;;20.40;82.60;;;;;;5056750;28;20021;-77
2021/08/03 10:12:16;;;;;;;1.60;1.50;;;20.60;82.60;;;;;;5056817;28;20024;-77
2021/08/03 10:14:42;;;;;;;1.80;1.40;;;20.70;82.10;;;;;;5056658;28;20100;-77
2021/08/03 10:17:09;;;;;;;2.03;1.75;;;20.90;82.00;;;;;;5056606;28;20427;-76
2021/08/03 10:19:37;;;;;;;2.78;1.75;;;21.00;81.80;;;;;;5038438;28;20028;-77
2021/08/03 10:22:21;;;;;;;1.48;1.33;;;21.10;81.70;;;;;;5038073;28;20078;-77
2021/08/03 10:25:10;;;;;;;2.00;1.60;;;21.20;81.60;;;;;;5038559;28;20028;-77
2021/08/03 10:27:49;;;;;;;2.58;2.10;;;21.20;81.80;;;;;;5038231;28;20047;-77
2021/08/03 10:30:27;;;;;;;4.50;1.75;;;21.20;81.70;;;;;;5056353;28;20033;-76
2021/08/03 10:32:53;;;;;;;2.50;2.08;;;21.30;81.80;;;;;;5056221;28;20086;-77
2021/08/03 10:35:36;;;;;;;2.55;2.00;;;21.40;81.80;;;;;;5056171;28;20444;-77
2021/08/03 10:38:02;;;;;;;2.05;1.77;;;21.50;81.50;;;;;;5055802;28;20083;-77
2021/08/03 10:40:46;;;;;;;2.13;1.67;;;21.50;81.60;;;;;;5056255;28;20025;-77
2021/08/03 10:43:34;;;;;;;3.03;2.05;;;21.60;81.50;;;;;;5055800;28;20037;-77
2021/08/03 10:46:08;;;;;;;2.00;1.80;;;21.70;81.40;;;;;;5056070;28;20025;-77
2021/08/03 10:48:37;;;;;;;2.88;2.10;;;21.80;81.20;;;;;;5056122;28;20489;-77
2021/08/03 10:51:25;;;;;;;2.97;2.47;;;21.90;81.10;;;;;;5055452;28;20021;-77
2021/08/03 10:53:59;;;;;;;2.50;2.03;;;22.00;81.00;;;;;;5055863;28;20354;-77
2021/08/03 10:56:25;;;;;;;3.47;2.53;;;22.00;80.90;;;;;;5055906;28;20492;-77
2021/08/03 10:59:11;;;;;;;2.67;2.08;;;22.00;80.80;;;;;;5037943;28;20051;-77
2021/08/03 11:01:45;;;;;;;2.78;2.40;;;22.00;81.60;;;;;;5055577;28;20033;-77
2021/08/03 11:04:46;;;;;;;3.40;2.50;;;22.00;80.90;;;;;;5055525;28;20021;-77
2021/08/03 11:07:27;;;;;;;3.80;2.90;;;22.00;81.00;;;;;;5055062;28;20029;-77
2021/08/03 11:09:54;;;;;;;4.22;2.58;;;21.90;81.00;;;;;;5054718;28;20032;-77
2021/08/03 11:12:39;;;;;;;3.95;2.72;;;21.60;81.40;;;;;;5055473;28;20067;-77
2021/08/03 11:15:30;;;;;;;3.90;2.67;;;21.30;82.00;;;;;;5055438;28;20040;-77
2021/08/03 11:18:04;;;;;;;2.65;2.20;;;21.10;82.40;;;;;;5055479;28;20144;-76
2021/08/03 11:20:35;;;;;;;3.50;2.80;;;21.00;82.40;;;;;;5054934;28;20428;-77
2021/08/03 11:23:04;;;;;;;4.15;2.78;;;20.80;82.40;;;;;;5055250;28;20061;-77
2021/08/03 11:25:30;;;;;;;4.40;2.92;;;20.60;82.80;;;;;;5055471;28;20021;-77
2021/08/03 11:28:19;;;;;;;4.03;2.80;;;20.40;83.00;;;;;;5055502;28;20078;-77
2021/08/03 11:30:47;;;;;;;3.50;2.65;;;20.40;83.00;;;;;;5055278;28;20052;-77
2021/08/03 11:33:14;;;;;;;3.10;2.47;;;20.30;83.10;;;;;;5055076;28;20056;-77
2021/08/03 11:35:40;;;;;;;4.03;2.75;;;20.10;83.10;;;;;;5054682;28;20442;-77
2021/08/03 11:38:08;;;;;;;3.58;2.80;;;20.00;83.20;;;;;;5055045;28;20025;-77
2021/08/03 11:40:34;;;;;;;3.45;2.80;;;19.90;83.30;;;;;;5054898;28;20032;-77
2021/08/03 11:43:00;;;;;;;2.75;2.30;;;19.80;83.50;;;;;;5054967;28;20037;-77
2021/08/03 11:45:26;;;;;;;2.97;2.25;;;19.70;83.50;;;;;;5054874;28;20025;-77
2021/08/03 11:48:01;;;;;;;2.90;2.17;;;19.60;83.60;;;;;;5054804;28;20017;-77
2021/08/03 11:50:40;;;;;;;2.63;1.85;;;19.50;83.70;;;;;;5054389;28;20037;-77
2021/08/03 11:53:11;;;;;;;2.42;1.70;;;19.40;83.70;;;;;;5054883;28;20027;-77
2021/08/03 11:55:39;;;;;;;2.72;1.83;;;19.30;83.70;;;;;;5054253;28;20390;-76
2021/08/03 11:58:05;;;;;;;3.45;1.92;;;19.30;83.90;;;;;;5054552;28;20069;-77
2021/08/03 12:00:32;;;;;;;2.33;1.67;;;19.20;83.70;;;;;;5054592;28;20029;-77
2021/08/03 12:02:59;;;;;;;2.63;1.80;;;19.20;83.70;;;;;;5054493;28;20119;-77
2021/08/03 12:05:33;;;;;;;3.88;1.98;;;19.20;83.70;;;;;;5054148;28;20059;-77
2021/08/03 12:08:04;;;;;;;1.90;1.70;;;19.20;83.60;;;;;;5054560;28;20094;-77
2021/08/03 12:10:34;;;;;;;1.83;1.58;;;19.10;83.60;;;;;;5054425;28;20421;-77
2021/08/03 12:13:01;;;;;;;2.45;1.80;;;19.10;83.60;;;;;;5054484;28;20032;-77
2021/08/03 12:15:27;;;;;;;2.28;1.90;;;19.00;83.50;;;;;;5036489;28;20017;-77
2021/08/03 12:18:11;;;;;;;2.13;1.90;;;19.00;83.50;;;;;;5053910;28;20021;-77
2021/08/03 12:20:43;;;;;;;2.17;1.80;;;19.00;83.60;;;;;;5054082;28;20429;-77
2021/08/03 12:23:18;;;;;;;2.10;1.65;;;19.00;83.70;;;;;;5054123;28;20496;-77
2021/08/03 12:25:55;;;;;;;1.67;1.38;;;19.00;83.50;;;;;;5054118;28;20025;-77
2021/08/03 12:28:28;;;;;;;1.30;1.20;;;19.00;83.50;;;;;;5054094;28;20493;-77
2021/08/03 12:30:53;;;;;;;1.60;1.50;;;19.00;83.50;;;;;;5053908;28;20075;-77
2021/08/03 12:33:33;;;;;;;2.08;1.60;;;19.00;83.40;;;;;;5053711;28;20489;-77
2021/08/03 12:36:11;;;;;;;2.17;1.75;;;19.10;83.20;;;;;;5053999;28;20032;-77
2021/08/03 12:38:38;;;;;;;2.13;1.40;;;19.10;83.20;;;;;;5053925;28;20419;-77
2021/08/03 12:41:21;;;;;;;1.25;1.10;;;19.10;83.10;;;;;;5054056;28;20476;-77
2021/08/03 12:43:47;;;;;;;1.40;1.30;;;19.10;83.10;;;;;;5053823;28;20079;-77
2021/08/03 12:46:13;;;;;;;1.63;1.35;;;19.10;83.10;;;;;;5035992;28;20031;-77
2021/08/03 12:48:49;;;;;;;2.53;1.60;;;19.10;82.90;;;;;;5053258;28;20094;-77
2021/08/03 12:51:30;;;;;;;1.73;1.48;;;19.10;82.80;;;;;;5053728;28;20025;-77
2021/08/03 12:54:12;;;;;;;1.45;1.35;;;19.10;83.00;;;;;;5053660;28;20500;-77
2021/08/03 12:56:51;;;;;;;1.25;1.10;;;19.00;83.20;;;;;;5053433;28;20045;-77
2021/08/03 12:59:43;;;;;;;1.20;1.10;;;19.00;83.20;;;;;;5053648;28;20092;-77